Wes Sellars — WDF9302 — position and weather

sailwx.info

Track history (hours):
 
Tides and Currents Weather Stations Pressure Air Temp Water Temp Dewpoint Dewpoint Depression Visibility Wind Speed Wind Dir Waves Ship Positions

Wes Sellars

More information available from US FCC via Universal Licensing System and Coast Guard Vessel Documentation Center.

Last reported at 2014-Jul-29 15:27 UTC. Time now 2014-Jul-30 17:23 UTC.
Position N 29°45' W 091°36'.

Length 27 m.

Type: Towing. MMSI: 367503760.

Date/timePositionNaut miles runAvg speedWind from/ knotsBaromVisibWave heightAir tempDewpointWater temp
2014-Jul-29 15:27N 29°45' W 091°36'6 5.4
2014-Jul-29 14:26N 29°42' W 091°31'3 3.7
2014-Jul-29 13:33N 29°41' W 091°28'6 5.5
2014-Jul-29 12:33N 29°39' W 091°22'6 6.3
2014-Jul-29 11:33N 29°40' W 091°15'4 4.4
2014-Jul-29 10:33N 29°41' W 091°10'5 4.9
2014-Jul-29 09:33N 29°38' W 091°05'5 4.6
2014-Jul-29 08:33N 29°37' W 090°60'5 4.9
2014-Jul-29 07:33N 29°34' W 090°56'5 4.9
2014-Jul-29 06:33N 29°32' W 090°51'5 4.5
2014-Jul-29 05:33N 29°33' W 090°46'5 4.1
2014-Jul-29 04:16N 29°37' W 090°42'4 5.0
2014-Jul-29 03:33N 29°35' W 090°38'5 4.8
2014-Jul-29 02:33N 29°34' W 090°33'5 5.3
2014-Jul-29 01:33N 29°33' W 090°27'4 4.1
2014-Jul-29 00:32N 29°35' W 090°22'25 1.8
2014-Jul-28 10:31N 29°57' W 090°09'0 0.0
2014-Jul-28 09:28N 29°57' W 090°09'0 0.0
2014-Jul-28 08:06N 29°57' W 090°09'0 0.0
2014-Jul-28 07:33N 29°57' W 090°09'  
2014-Jul-24 12:24N 30°02' W 090°36'0 0.0
2014-Jul-24 09:31N 30°02' W 090°36'0 0.0
2014-Jul-24 08:27N 30°02' W 090°36'0 0.0
2014-Jul-24 07:33N 30°02' W 090°36'0 0.0
2014-Jul-24 06:33N 30°02' W 090°36'0 0.0
2014-Jul-24 05:27N 30°02' W 090°36'0 0.0
2014-Jul-24 04:32N 30°02' W 090°36'0 0.0
2014-Jul-24 03:33N 30°02' W 090°36'0 0.1
2014-Jul-24 01:25N 30°02' W 090°36'0 0.2
2014-Jul-24 00:32N 30°02' W 090°36'0 0.0
2014-Jul-23 12:30N 30°02' W 090°36'0 0.0
2014-Jul-23 10:21N 30°02' W 090°36'4 1.8
2014-Jul-23 08:06N 30°03' W 090°32'8 0.2
2014-Jul-21 11:31N 29°59' W 090°24'7 6.7
2014-Jul-21 10:31N 30°03' W 090°30'5 0.3
2014-Jul-20 13:15N 30°03' W 090°36'  
Track history (hours):
 
Tides and Currents Weather Stations Pressure Air Temp Water Temp Dewpoint Dewpoint Depression Visibility Wind Speed Wind Dir Waves Ship Positions

Wes Sellars

More information available from US FCC via Universal Licensing System and Coast Guard Vessel Documentation Center.

Last reported at 2014-Jul-29 15:27 UTC. Time now 2014-Jul-30 17:23 UTC.
Position N 29°45' W 091°36'.

Length 27 m.

Type: Towing. MMSI: 367503760.

Date/timePositionNaut miles runAvg speedWind from/ knotsBaromVisibWave heightAir tempDewpointWater temp
2014-Jul-29 15:27N 29°45' W 091°36'6 5.4
2014-Jul-29 14:26N 29°42' W 091°31'3 3.7
2014-Jul-29 13:33N 29°41' W 091°28'6 5.5
2014-Jul-29 12:33N 29°39' W 091°22'6 6.3
2014-Jul-29 11:33N 29°40' W 091°15'4 4.4
2014-Jul-29 10:33N 29°41' W 091°10'5 4.9
2014-Jul-29 09:33N 29°38' W 091°05'5 4.6
2014-Jul-29 08:33N 29°37' W 090°60'5 4.9
2014-Jul-29 07:33N 29°34' W 090°56'5 4.9
2014-Jul-29 06:33N 29°32' W 090°51'5 4.5
2014-Jul-29 05:33N 29°33' W 090°46'5 4.1
2014-Jul-29 04:16N 29°37' W 090°42'4 5.0
2014-Jul-29 03:33N 29°35' W 090°38'5 4.8
2014-Jul-29 02:33N 29°34' W 090°33'5 5.3
2014-Jul-29 01:33N 29°33' W 090°27'4 4.1
2014-Jul-29 00:32N 29°35' W 090°22'25 1.8
2014-Jul-28 10:31N 29°57' W 090°09'0 0.0
2014-Jul-28 09:28N 29°57' W 090°09'0 0.0
2014-Jul-28 08:06N 29°57' W 090°09'0 0.0
2014-Jul-28 07:33N 29°57' W 090°09'  
2014-Jul-24 12:24N 30°02' W 090°36'0 0.0
2014-Jul-24 09:31N 30°02' W 090°36'0 0.0
2014-Jul-24 08:27N 30°02' W 090°36'0 0.0
2014-Jul-24 07:33N 30°02' W 090°36'0 0.0
2014-Jul-24 06:33N 30°02' W 090°36'0 0.0
2014-Jul-24 05:27N 30°02' W 090°36'0 0.0
2014-Jul-24 04:32N 30°02' W 090°36'0 0.0
2014-Jul-24 03:33N 30°02' W 090°36'0 0.1
2014-Jul-24 01:25N 30°02' W 090°36'0 0.2
2014-Jul-24 00:32N 30°02' W 090°36'0 0.0
2014-Jul-23 12:30N 30°02' W 090°36'0 0.0
2014-Jul-23 10:21N 30°02' W 090°36'4 1.8
2014-Jul-23 08:06N 30°03' W 090°32'8 0.2
2014-Jul-21 11:31N 29°59' W 090°24'7 6.7
2014-Jul-21 10:31N 30°03' W 090°30'5 0.3
2014-Jul-20 13:15N 30°03' W 090°36'  

Dump ship's entire track history